Results: 2021 Americas Triathlon Cup Salinas | Elite Men
Salinas, Ecuador • 12 Dec, 2021
Pos First Name Last Name YOB Country Start
Num
Time Swim T1 Bike T2 Run
1 Gaspar Riveros 1990 CHI 1 00:54:16 00:08:45 00:00:53 00:28:05 00:00:08 00:16:25
2 Gabriel Terán Carvajal 2001 ECU 9 00:54:21 00:08:32 00:00:59 00:28:10 00:00:10 00:16:30
3 Ramón Armando Matute 1994 ECU 11 00:54:35 00:08:31 00:00:55 00:28:19 00:00:06 00:16:44
4 Hugo Mario Ruiz Dimate 1997 COL 5 00:54:49 00:08:49 00:00:54 00:28:36 00:00:09 00:16:20
5 Antonio Bravo Neto 1999 BRA 3 00:55:01 00:08:44 00:00:58 00:28:40 00:00:11 00:16:29
6 Liam Donnelly 1999 CAN 10 00:55:10 00:09:23 00:00:56 00:28:45 00:00:07 00:16:00
7 Alvaro Campos Solano 2000 CRC 15 00:55:22 00:08:34 00:00:58 00:28:49 00:00:08 00:16:54
8 David Vega Campoverde 2004 ECU 27 00:55:27 00:08:45 00:00:57 00:28:39 00:00:09 00:16:57
9 Raul Alberto Ruiz Valenzuela 2000 MEX 14 00:55:33 00:08:47 00:00:59 00:28:35 00:00:08 00:17:03
10 Petter Vega 1996 PAN 7 00:55:34 00:08:42 00:00:58 00:28:40 00:00:09 00:17:05
11 Andres Barrionuevo 1996 ECU 17 00:55:50 00:08:43 00:01:07 00:28:33 00:00:07 00:17:20
12 Solen Wood 2001 CAN 25 00:55:52 00:08:44 00:00:54 00:29:20 00:00:10 00:16:44
13 Cesar Xavier Criollo Matute 2003 ECU 31 00:56:34 00:08:46 00:00:56 00:28:38 00:00:08 00:18:05
14 Joaquin Solis Narvaez 2002 ECU 23 00:56:50 00:08:48 00:00:57 00:28:36 00:00:07 00:18:21
15 Renze Postma 1996 ARU 16 00:57:08 00:08:45 00:01:02 00:28:37 00:00:08 00:18:37
16 David Alvarado Chou 1999 CRC 20 00:57:17 00:09:12 00:01:02 00:28:48 00:00:09 00:18:07
17 Davis Bove 2000 USA 12 00:57:18 00:08:54 00:00:51 00:31:53 00:00:12 00:15:27
18 Matias Sebastian Bravo Delgado 2002 ECU 18 00:58:13 00:08:56 00:00:58 00:29:08 00:00:09 00:19:02
19 Esteban Bustos Misquero 2002 ECU 33 00:58:20 00:09:06 00:01:00 00:29:01 00:00:11 00:19:02
20 Bruno Larios Solis 1997 MEX 22 00:58:54 00:09:00 00:01:04 00:28:59 00:00:09 00:19:41
21 Galver Andres Alarcon Posligua 2001 ECU 35 00:59:29 00:08:44 00:01:02 00:29:18 00:00:10 00:20:16
22 Jorge Sebastian Muñoz Jara 2004 ECU 26 01:01:47 00:08:46 00:01:01 00:31:46 00:00:08 00:20:06
23 Anderson Bastidas Molina 2001 ECU 36 01:02:01 00:09:26 00:01:02 00:32:32 00:00:09 00:18:52
DNF Martin Sebastian Mendez Plaza 2002 ECU 34 DNF 00:08:39 00:00:58 00:00:00 00:00:00 00:00:00
DNF Juan Diego Cuesta Santana 1996 ECU 21 DNF 00:09:13 00:01:02 00:00:00 00:00:00 00:00:00
DNF Trevor Foley 1999 USA 19 DNF 00:09:43 00:00:59 00:00:00 00:00:00 00:00:00
LAP Patricio Guaipacha Chinchi 2001 ECU 29 LAP 00:09:44 00:01:11 00:25:25 00:00:00 00:00:00
LAP Juan Galindo 2004 ESA 30 LAP 00:09:46 00:01:10 00:25:23 00:00:00 00:00:00
LAP Martin Garcia 2001 ECU 32 LAP 00:09:25 00:01:07 00:00:00 00:00:00 00:00:00
LAP Daniel Potosi Barahona 2000 ECU 37 LAP 00:11:05 00:01:23 00:00:00 00:00:00 00:00:00
Program notes:

Technical Delegate: Felix Molina/MEX
Head Referee: Jimmy Arauz/ECU
Competition Jury: Felix Molina/MEX, Kerly Mora/ECU, Cristian Batson/ECU
Distances: Swim 750 m (1 lap); Bike 20 km (4 laps); Run 5 km (3 laps)
Water Temperature: 24.5°C. Air Temperature: 27.8°C. Wetsuits not allowed